createdAt,value
2022-12-09T00:00:30.091Z,5.26
2022-12-09T00:03:23.505Z,5.25
2022-12-09T00:05:49.988Z,5.34
2022-12-09T00:08:16.560Z,5.33
2022-12-09T00:10:44.365Z,5.31
2022-12-09T00:13:10.840Z,5.37
2022-12-09T00:15:41.914Z,5.37
2022-12-09T00:18:09.479Z,5.42
2022-12-09T00:20:35.807Z,5.35
2022-12-09T00:23:02.327Z,5.39
2022-12-09T00:25:28.626Z,5.37
2022-12-09T00:27:55.135Z,5.34
2022-12-09T00:30:21.286Z,5.29
2022-12-09T00:32:49.310Z,5.26
2022-12-09T00:35:15.592Z,5.23
2022-12-09T00:37:42.223Z,5.24
2022-12-09T00:40:09.366Z,5.23
2022-12-09T00:42:36.703Z,5.23
2022-12-09T00:45:03.245Z,5.20
2022-12-09T00:47:29.828Z,5.29
2022-12-09T00:49:56.327Z,5.30
2022-12-09T00:52:23.163Z,5.33
2022-12-09T00:54:49.637Z,5.33
2022-12-09T00:57:16.211Z,5.25
2022-12-09T00:59:42.384Z,5.34
2022-12-09T01:02:09.019Z,5.24
2022-12-09T01:04:36.085Z,5.26
2022-12-09T01:07:02.955Z,5.25
2022-12-09T01:09:29.256Z,5.30
2022-12-09T01:11:55.802Z,5.26
2022-12-09T01:14:21.973Z,5.34
2022-12-09T01:16:48.732Z,5.33
2022-12-09T01:19:16.124Z,5.41
2022-12-09T01:21:42.706Z,5.38
2022-12-09T01:24:10.369Z,5.40
2022-12-09T01:26:37.644Z,5.44
2022-12-09T01:29:04.292Z,5.46
2022-12-09T01:31:30.843Z,5.51
2022-12-09T01:33:57.397Z,5.55
2022-12-09T01:36:28.647Z,5.53
2022-12-09T01:38:57.672Z,5.51
2022-12-09T01:41:25.051Z,5.44
2022-12-09T01:44:11.775Z,5.36
2022-12-09T01:46:38.351Z,5.42
2022-12-09T01:49:07.643Z,5.26
2022-12-09T01:51:36.036Z,5.14
2022-12-09T01:54:03.100Z,5.04
2022-12-09T01:56:33.558Z,5.06
2022-12-09T01:59:08.477Z,5.02
2022-12-09T02:01:35.798Z,5.00
2022-12-09T02:04:02.520Z,5.09
2022-12-09T02:06:29.413Z,5.05
2022-12-09T02:08:57.324Z,5.14
2022-12-09T02:11:43.141Z,5.12
2022-12-09T02:14:39.641Z,5.12
2022-12-09T02:17:30.700Z,5.17
2022-12-09T02:20:03.085Z,5.22
2022-12-09T02:22:44.634Z,5.10
2022-12-09T02:25:32.120Z,5.06
2022-12-09T02:28:24.130Z,5.14
2022-12-09T02:31:04.677Z,5.12
2022-12-09T02:33:44.376Z,5.18
2022-12-09T02:36:17.571Z,4.95
2022-12-09T02:38:48.875Z,5.19
2022-12-09T02:41:23.419Z,5.06
2022-12-09T02:43:56.010Z,5.09
2022-12-09T02:46:28.660Z,5.05
2022-12-09T02:48:58.494Z,4.94
2022-12-09T02:51:28.624Z,4.94
2022-12-09T02:54:02.675Z,5.01
2022-12-09T02:56:30.659Z,5.08
2022-12-09T02:58:57.524Z,4.99
2022-12-09T03:01:32.353Z,5.18
2022-12-09T03:03:59.668Z,5.19
2022-12-09T03:06:33.883Z,5.08
2022-12-09T03:09:09.558Z,5.13
2022-12-09T03:11:37.637Z,5.16
2022-12-09T03:14:09.195Z,5.22
2022-12-09T03:16:41.742Z,5.25
2022-12-09T03:19:22.122Z,5.14
2022-12-09T03:21:52.961Z,5.13
2022-12-09T03:24:30.263Z,5.10
2022-12-09T03:26:59.874Z,5.00
2022-12-09T03:29:28.605Z,4.97
2022-12-09T03:31:57.409Z,4.99
2022-12-09T03:34:32.306Z,5.14
2022-12-09T03:37:01.336Z,5.05
2022-12-09T03:39:33.690Z,5.04
2022-12-09T03:42:05.041Z,5.00
2022-12-09T03:44:43.381Z,4.98
2022-12-09T03:47:10.613Z,5.28
2022-12-09T03:49:38.982Z,5.10
2022-12-09T03:52:08.098Z,5.07
2022-12-09T03:54:45.361Z,5.02
2022-12-09T03:57:18.712Z,5.01
2022-12-09T03:59:56.655Z,4.84
2022-12-09T04:02:23.630Z,5.39
2022-12-09T04:04:51.175Z,5.11
2022-12-09T04:07:18.102Z,5.02
2022-12-09T04:09:46.376Z,5.32
2022-12-09T04:12:12.611Z,5.32
2022-12-09T04:14:39.165Z,5.22
2022-12-09T04:17:05.671Z,5.14
2022-12-09T04:19:32.765Z,5.16
2022-12-09T04:21:59.586Z,5.11
2022-12-09T04:24:26.019Z,5.00
2022-12-09T04:26:52.175Z,4.90
2022-12-09T04:29:18.954Z,4.69
2022-12-09T04:31:45.575Z,4.53
2022-12-09T04:34:12.769Z,4.52
2022-12-09T04:36:39.477Z,4.61
2022-12-09T04:39:06.831Z,4.81
2022-12-09T04:41:33.525Z,4.47
2022-12-09T04:44:00.716Z,4.51
2022-12-09T04:46:27.112Z,4.65
2022-12-09T04:48:53.610Z,4.58
2022-12-09T04:51:20.192Z,4.68
2022-12-09T04:53:47.061Z,4.75
2022-12-09T04:56:20.545Z,4.74
2022-12-09T04:58:48.688Z,4.70
2022-12-09T05:01:24.773Z,4.69
2022-12-09T05:03:54.973Z,4.59
2022-12-09T05:06:22.117Z,4.87
2022-12-09T05:08:49.161Z,4.71
2022-12-09T05:11:17.247Z,4.85
2022-12-09T05:13:44.801Z,5.19
2022-12-09T05:16:16.375Z,5.20
2022-12-09T05:18:44.815Z,5.20
2022-12-09T05:21:14.417Z,5.59
2022-12-09T05:23:42.297Z,5.24
2022-12-09T05:26:12.015Z,5.69
2022-12-09T05:28:38.950Z,5.71
2022-12-09T05:31:09.280Z,5.41
2022-12-09T05:33:36.977Z,5.55
2022-12-09T05:36:03.748Z,5.33
2022-12-09T05:38:30.620Z,5.19
2022-12-09T05:41:00.614Z,5.17
2022-12-09T05:43:27.677Z,4.89
2022-12-09T05:45:55.033Z,4.71
2022-12-09T05:48:22.686Z,4.75
2022-12-09T05:51:08.059Z,4.87
2022-12-09T05:53:34.817Z,4.79
2022-12-09T05:56:01.921Z,5.19
2022-12-09T05:58:29.577Z,5.59
2022-12-09T06:01:02.496Z,5.72
2022-12-09T06:03:29.750Z,5.54
2022-12-09T06:05:56.467Z,5.86
2022-12-09T06:08:23.891Z,5.74
2022-12-09T06:10:50.960Z,5.65
2022-12-09T06:13:17.709Z,5.50
2022-12-09T06:15:44.067Z,5.23
2022-12-09T06:18:11.393Z,5.29
2022-12-09T06:20:41.116Z,5.12
2022-12-09T06:23:07.913Z,5.20
2022-12-09T06:25:34.965Z,5.14
2022-12-09T06:28:02.267Z,5.67
2022-12-09T06:30:29.087Z,5.32
2022-12-09T06:32:55.821Z,5.21
2022-12-09T06:35:22.239Z,5.42
2022-12-09T06:37:52.267Z,5.31
2022-12-09T06:40:21.980Z,5.15
2022-12-09T06:42:49.976Z,5.10
2022-12-09T06:45:19.891Z,4.99
2022-12-09T06:47:47.550Z,5.06
2022-12-09T06:50:14.743Z,5.34
2022-12-09T06:52:41.615Z,5.35
2022-12-09T06:55:10.309Z,5.22
2022-12-09T06:57:38.206Z,5.00
2022-12-09T07:00:05.619Z,4.88
2022-12-09T07:02:36.056Z,4.98
2022-12-09T07:05:05.743Z,5.44
2022-12-09T07:07:33.195Z,5.54
2022-12-09T07:10:07.960Z,5.54
2022-12-09T07:12:34.785Z,5.69
2022-12-09T07:15:01.483Z,5.93
2022-12-09T07:17:28.779Z,5.85
2022-12-09T07:20:00.143Z,5.78
2022-12-09T07:22:33.047Z,5.76
2022-12-09T07:24:59.710Z,5.90
2022-12-09T07:27:26.834Z,5.89
2022-12-09T07:30:18.251Z,5.49
2022-12-09T07:32:45.174Z,5.38
2022-12-09T07:35:12.270Z,5.29
2022-12-09T07:37:39.285Z,5.09
2022-12-09T07:40:06.740Z,5.05
2022-12-09T07:42:35.399Z,4.69
2022-12-09T07:45:05.159Z,4.76
2022-12-09T07:47:33.375Z,4.74
2022-12-09T07:50:04.695Z,4.50
2022-12-09T07:52:33.768Z,4.26
2022-12-09T07:55:00.887Z,4.43
2022-12-09T07:57:28.504Z,5.18
2022-12-09T07:59:56.305Z,5.12
2022-12-09T08:02:23.315Z,4.90
2022-12-09T08:04:50.234Z,5.05
2022-12-09T08:07:17.541Z,5.26
2022-12-09T08:09:44.247Z,5.55
2022-12-09T08:12:12.688Z,5.62
2022-12-09T08:14:39.764Z,5.70
2022-12-09T08:17:07.252Z,5.56
2022-12-09T08:19:33.954Z,5.63
2022-12-09T08:22:01.027Z,5.33
2022-12-09T08:24:27.598Z,5.16
2022-12-09T08:26:54.439Z,5.71
2022-12-09T08:29:21.533Z,5.90
2022-12-09T08:31:49.009Z,6.07
2022-12-09T08:34:16.803Z,6.00
2022-12-09T08:36:44.371Z,5.89
2022-12-09T08:39:13.082Z,6.17
2022-12-09T08:41:40.712Z,6.38
2022-12-09T08:44:16.559Z,6.06
2022-12-09T08:46:47.143Z,6.05
2022-12-09T08:49:17.826Z,5.80
2022-12-09T08:51:46.199Z,6.01
2022-12-09T08:54:12.832Z,6.07
2022-12-09T08:56:41.496Z,6.25
2022-12-09T08:59:08.348Z,6.32
2022-12-09T09:01:36.015Z,6.34
2022-12-09T09:04:09.615Z,6.54
2022-12-09T09:06:41.482Z,6.65
2022-12-09T09:09:10.062Z,6.69
2022-12-09T09:11:37.741Z,6.32
2022-12-09T09:14:06.198Z,6.04
2022-12-09T09:16:34.568Z,6.02
2022-12-09T09:19:02.992Z,5.89
2022-12-09T09:21:30.005Z,5.77
2022-12-09T09:23:56.565Z,5.62
2022-12-09T09:26:25.442Z,5.56
2022-12-09T09:28:55.847Z,5.57
2022-12-09T09:31:24.092Z,5.78
2022-12-09T09:33:51.956Z,5.66
2022-12-09T09:36:22.616Z,5.72
2022-12-09T09:38:51.561Z,6.05
2022-12-09T09:41:38.578Z,6.31
2022-12-09T09:44:27.350Z,6.38
2022-12-09T09:46:56.407Z,6.55
2022-12-09T09:49:38.420Z,6.72
2022-12-09T09:52:15.179Z,6.79
2022-12-09T09:54:41.653Z,6.72
2022-12-09T09:57:11.196Z,6.78
2022-12-09T09:59:41.253Z,6.42
2022-12-09T10:02:11.413Z,6.09
2022-12-09T10:04:41.442Z,6.19
2022-12-09T10:07:12.393Z,5.97
2022-12-09T10:09:53.154Z,6.41
2022-12-09T10:12:20.438Z,6.13
2022-12-09T10:14:54.425Z,6.17
2022-12-09T10:17:39.216Z,6.01
2022-12-09T10:20:24.338Z,5.94
2022-12-09T10:22:58.255Z,5.61
2022-12-09T10:25:31.066Z,5.69
2022-12-09T10:28:27.759Z,5.71
2022-12-09T10:30:55.623Z,5.55
2022-12-09T10:33:28.649Z,5.80
2022-12-09T10:35:55.640Z,6.00
2022-12-09T10:38:24.349Z,6.00
2022-12-09T10:41:07.320Z,6.11
2022-12-09T10:43:43.389Z,6.06
2022-12-09T10:46:21.010Z,5.94
2022-12-09T10:48:49.069Z,5.94
2022-12-09T10:51:20.546Z,5.95
2022-12-09T10:53:51.676Z,6.09
2022-12-09T10:56:26.058Z,6.15
2022-12-09T10:59:15.216Z,5.87
2022-12-09T11:01:52.208Z,5.88
2022-12-09T11:04:40.542Z,5.93
2022-12-09T11:07:06.949Z,6.39
2022-12-09T11:09:36.744Z,6.39
2022-12-09T11:12:06.615Z,6.27
2022-12-09T11:14:47.910Z,5.98
2022-12-09T11:17:24.263Z,6.39
2022-12-09T11:20:09.816Z,6.62
2022-12-09T11:22:41.848Z,6.79
2022-12-09T11:25:12.079Z,6.69
2022-12-09T11:27:42.758Z,6.56
2022-12-09T11:30:16.028Z,6.63
2022-12-09T11:33:05.233Z,6.57
2022-12-09T11:35:55.638Z,6.47
2022-12-09T11:38:35.688Z,6.62
2022-12-09T11:41:11.261Z,6.72
2022-12-09T11:43:49.446Z,6.85
2022-12-09T11:46:21.690Z,7.01
2022-12-09T11:49:01.260Z,6.99
2022-12-09T11:51:35.270Z,6.79
2022-12-09T11:54:10.569Z,6.84
2022-12-09T11:56:40.043Z,6.79
2022-12-09T11:59:13.120Z,6.64
2022-12-09T12:02:05.324Z,6.70
2022-12-09T12:04:53.725Z,6.74
2022-12-09T12:07:40.807Z,6.63
2022-12-09T12:10:34.700Z,6.82
2022-12-09T12:13:19.321Z,6.82
2022-12-09T12:15:58.015Z,6.82
2022-12-09T12:18:28.820Z,6.84
2022-12-09T12:21:10.158Z,6.89
2022-12-09T12:23:48.855Z,7.05
2022-12-09T12:26:15.008Z,7.12
2022-12-09T12:28:57.222Z,7.13
2022-12-09T12:31:50.019Z,6.97
2022-12-09T12:34:44.103Z,6.89
2022-12-09T12:37:34.615Z,6.73
2022-12-09T12:40:27.191Z,6.75
2022-12-09T12:43:24.767Z,6.91
2022-12-09T12:46:17.133Z,7.05
2022-12-09T12:49:08.089Z,7.03
2022-12-09T12:51:49.723Z,6.99
2022-12-09T12:54:25.999Z,6.86
2022-12-09T12:57:10.711Z,6.91
2022-12-09T13:00:26.273Z,6.64
2022-12-09T13:03:01.928Z,6.83
2022-12-09T13:05:36.638Z,6.93
2022-12-09T13:08:30.104Z,7.05
2022-12-09T13:11:01.284Z,6.91
2022-12-09T13:13:27.798Z,6.90
2022-12-09T13:15:59.837Z,6.88
2022-12-09T13:18:39.249Z,7.02
2022-12-09T13:21:06.770Z,6.99
2022-12-09T13:23:48.244Z,6.77
2022-12-09T13:26:41.519Z,6.84
2022-12-09T13:29:35.616Z,6.81
2022-12-09T13:32:15.209Z,6.93
2022-12-09T13:34:49.292Z,6.83
2022-12-09T13:37:30.494Z,6.99
2022-12-09T13:39:58.069Z,6.79
2022-12-09T13:42:46.771Z,6.66
2022-12-09T13:45:22.889Z,6.61
2022-12-09T13:47:52.565Z,6.65
2022-12-09T13:50:39.075Z,6.74
2022-12-09T13:53:14.492Z,6.82
2022-12-09T13:55:58.357Z,6.88
2022-12-09T13:58:55.223Z,6.60
2022-12-09T14:01:42.995Z,6.61
2022-12-09T14:04:34.186Z,6.91
2022-12-09T14:07:10.084Z,6.89
2022-12-09T14:09:49.574Z,6.70
2022-12-09T14:12:24.984Z,6.68
2022-12-09T14:15:10.031Z,6.75
2022-12-09T14:17:36.566Z,6.66
2022-12-09T14:20:38.758Z,6.65
2022-12-09T14:23:09.080Z,6.76
2022-12-09T14:25:35.540Z,6.71
2022-12-09T14:28:11.693Z,6.36
2022-12-09T14:30:53.635Z,6.48
2022-12-09T14:33:24.125Z,6.39
2022-12-09T14:35:56.323Z,6.48
2022-12-09T14:38:29.230Z,6.47
2022-12-09T14:41:24.691Z,6.50
2022-12-09T14:44:18.960Z,6.49
2022-12-09T14:46:49.322Z,6.49
2022-12-09T14:49:28.917Z,6.47
2022-12-09T14:51:58.202Z,6.51
2022-12-09T14:54:45.099Z,6.42
2022-12-09T14:57:33.361Z,6.34
2022-12-09T14:59:59.968Z,6.10
2022-12-09T15:02:31.708Z,6.28
2022-12-09T15:05:01.301Z,6.47
2022-12-09T15:07:31.867Z,6.52
2022-12-09T15:10:01.337Z,6.28
2022-12-09T15:12:39.885Z,6.37
2022-12-09T15:15:09.403Z,6.16
2022-12-09T15:17:51.697Z,6.24
2022-12-09T15:20:29.397Z,6.45
2022-12-09T15:23:19.593Z,6.29
2022-12-09T15:25:52.519Z,6.13
2022-12-09T15:28:28.203Z,6.17
2022-12-09T15:30:56.694Z,5.99
2022-12-09T15:33:23.764Z,6.18
2022-12-09T15:35:53.319Z,6.29
2022-12-09T15:38:20.305Z,6.45
2022-12-09T15:41:06.096Z,6.51
2022-12-09T15:43:36.174Z,6.57
2022-12-09T15:46:03.582Z,6.57
2022-12-09T15:48:36.599Z,6.36
2022-12-09T15:51:15.697Z,6.04
2022-12-09T15:53:55.833Z,6.13
2022-12-09T15:56:34.480Z,5.90
2022-12-09T15:59:15.263Z,5.53
2022-12-09T16:01:49.431Z,5.30
2022-12-09T16:04:19.543Z,5.39
2022-12-09T16:06:47.422Z,5.12
2022-12-09T16:09:17.167Z,5.14
2022-12-09T16:11:47.846Z,5.14
2022-12-09T16:14:16.937Z,5.22
2022-12-09T16:17:00.790Z,5.12
2022-12-09T16:19:30.782Z,5.38
2022-12-09T16:21:59.563Z,5.34
2022-12-09T16:24:44.095Z,5.45
2022-12-09T16:27:22.400Z,5.31
2022-12-09T16:29:52.586Z,5.46
2022-12-09T16:32:21.852Z,5.65
2022-12-09T16:34:54.915Z,5.68
2022-12-09T16:37:28.935Z,5.20
2022-12-09T16:39:57.989Z,5.06
2022-12-09T16:42:36.483Z,4.78
2022-12-09T16:46:04.910Z,4.54
2022-12-09T16:48:32.330Z,4.86
2022-12-09T16:51:16.873Z,4.50
2022-12-09T16:53:46.171Z,4.44
2022-12-09T16:56:24.783Z,4.50
2022-12-09T16:58:52.773Z,4.22
2022-12-09T17:01:34.730Z,4.10
2022-12-09T17:04:13.146Z,3.99
2022-12-09T17:06:40.088Z,4.27
2022-12-09T17:09:06.672Z,4.07
2022-12-09T17:11:33.982Z,3.91
2022-12-09T17:14:00.621Z,4.15
2022-12-09T17:16:27.757Z,4.39
2022-12-09T17:18:54.455Z,4.59
2022-12-09T17:21:20.954Z,4.59
2022-12-09T17:23:47.854Z,4.60
2022-12-09T17:26:17.698Z,4.62
2022-12-09T17:28:45.427Z,4.58
2022-12-09T17:31:18.150Z,4.68
2022-12-09T17:33:45.155Z,4.84
2022-12-09T17:36:12.714Z,5.02
2022-12-09T17:38:39.778Z,5.06
2022-12-09T17:41:08.891Z,4.96
2022-12-09T17:43:36.052Z,4.80
2022-12-09T17:46:04.612Z,4.74
2022-12-09T17:48:33.117Z,4.61
2022-12-09T17:51:07.575Z,4.22
2022-12-09T17:53:36.359Z,4.03
2022-12-09T17:56:08.620Z,4.08
2022-12-09T17:58:35.369Z,3.86
2022-12-09T18:01:01.658Z,3.85
2022-12-09T18:03:54.192Z,3.96
2022-12-09T18:06:15.727Z,3.73
2022-12-09T18:08:42.489Z,3.57
2022-12-09T18:11:10.261Z,3.41
2022-12-09T18:13:37.476Z,3.71
2022-12-09T18:16:09.589Z,3.63
2022-12-09T18:18:37.674Z,3.70
2022-12-09T18:21:04.215Z,3.41
2022-12-09T18:23:31.170Z,3.47
2022-12-09T18:25:58.390Z,3.40
2022-12-09T18:28:28.693Z,3.63
2022-12-09T18:30:55.076Z,3.89
2022-12-09T18:33:23.146Z,3.64
2022-12-09T18:35:50.076Z,3.73
2022-12-09T18:38:17.247Z,4.13
2022-12-09T18:41:02.881Z,4.04
2022-12-09T18:43:39.399Z,4.14
2022-12-09T18:46:13.249Z,3.84
2022-12-09T18:48:40.150Z,3.84
2022-12-09T18:51:16.964Z,4.03
2022-12-09T18:53:44.322Z,3.96
2022-12-09T18:56:11.299Z,4.13
2022-12-09T18:59:04.836Z,4.13
2022-12-09T19:01:28.976Z,3.86
2022-12-09T19:03:58.339Z,3.94
2022-12-09T19:06:26.337Z,4.01
2022-12-09T19:08:56.594Z,4.22
2022-12-09T19:11:28.166Z,4.13
2022-12-09T19:13:56.074Z,4.15
2022-12-09T19:16:24.034Z,4.20
2022-12-09T19:18:55.459Z,4.42
2022-12-09T19:21:23.237Z,4.16
2022-12-09T19:23:50.491Z,4.28
2022-12-09T19:26:17.972Z,4.09
2022-12-09T19:28:50.014Z,4.25
2022-12-09T19:31:17.933Z,4.36
2022-12-09T19:33:44.679Z,4.31
2022-12-09T19:36:11.635Z,4.27
2022-12-09T19:38:39.106Z,4.04
2022-12-09T19:41:06.459Z,4.24
2022-12-09T19:43:33.825Z,4.37
2022-12-09T19:46:08.368Z,4.14
2022-12-09T19:48:36.776Z,4.24
2022-12-09T19:51:10.331Z,4.20
2022-12-09T19:53:37.946Z,4.20
2022-12-09T19:56:07.918Z,4.00
2022-12-09T19:58:36.762Z,4.01
2022-12-09T20:01:15.445Z,3.80
2022-12-09T20:03:45.249Z,3.75
2022-12-09T20:06:13.780Z,3.67
2022-12-09T20:08:40.488Z,3.87
2022-12-09T20:11:11.807Z,3.87
2022-12-09T20:13:38.285Z,3.82
2022-12-09T20:16:06.649Z,3.94
2022-12-09T20:18:34.363Z,3.97
2022-12-09T20:21:05.803Z,4.09
2022-12-09T20:23:34.680Z,3.84
2022-12-09T20:26:04.855Z,3.83
2022-12-09T20:28:32.276Z,3.89
2022-12-09T20:31:07.238Z,3.88
2022-12-09T20:33:34.155Z,3.92
2022-12-09T20:36:15.256Z,4.09
2022-12-09T20:38:43.015Z,4.10
2022-12-09T20:41:13.011Z,3.97
2022-12-09T20:43:41.830Z,4.01
2022-12-09T20:46:11.934Z,4.20
2022-12-09T20:48:39.309Z,4.15
2022-12-09T20:51:23.618Z,4.24
2022-12-09T20:53:51.791Z,4.14
2022-12-09T20:56:19.843Z,4.04
2022-12-09T20:58:47.949Z,4.50
2022-12-09T21:01:23.876Z,4.50
2022-12-09T21:03:52.480Z,4.36
2022-12-09T21:06:21.099Z,4.60
2022-12-09T21:08:48.248Z,4.36
2022-12-09T21:11:22.729Z,4.28
2022-12-09T21:13:57.975Z,4.28
2022-12-09T21:16:27.170Z,4.61
2022-12-09T21:18:56.920Z,4.63
2022-12-09T21:21:25.571Z,4.36
2022-12-09T21:23:53.942Z,4.44
2022-12-09T21:26:23.128Z,4.32
2022-12-09T21:28:50.576Z,4.27
2022-12-09T21:31:23.213Z,4.30
2022-12-09T21:33:51.791Z,4.23
2022-12-09T21:36:21.774Z,4.25
2022-12-09T21:38:48.451Z,4.31
2022-12-09T21:41:20.368Z,4.47
2022-12-09T21:43:47.429Z,4.18
2022-12-09T21:46:19.014Z,4.22
2022-12-09T21:48:51.816Z,4.22
2022-12-09T21:51:19.423Z,4.30
2022-12-09T21:53:47.098Z,4.22
2022-12-09T21:56:15.137Z,4.45
2022-12-09T21:58:43.636Z,4.34
2022-12-09T22:01:13.814Z,4.43
2022-12-09T22:03:41.273Z,4.26
2022-12-09T22:06:07.879Z,4.24
2022-12-09T22:08:35.709Z,4.26
2022-12-09T22:11:11.530Z,4.40
2022-12-09T22:13:39.705Z,4.48
2022-12-09T22:16:11.562Z,4.49
2022-12-09T22:18:38.577Z,4.42
2022-12-09T22:21:27.331Z,4.59
2022-12-09T22:23:57.513Z,4.71
2022-12-09T22:26:24.699Z,4.84
2022-12-09T22:28:51.585Z,4.67
2022-12-09T22:31:22.594Z,4.58
2022-12-09T22:33:55.537Z,4.42
2022-12-09T22:36:22.574Z,4.41
2022-12-09T22:38:49.610Z,4.48
2022-12-09T22:41:19.283Z,4.68
2022-12-09T22:43:48.232Z,4.75
2022-12-09T22:46:17.273Z,4.77
2022-12-09T22:48:44.555Z,4.73
2022-12-09T22:51:14.108Z,4.71
2022-12-09T22:53:41.007Z,4.79
2022-12-09T22:56:08.228Z,4.74
2022-12-09T22:58:35.213Z,4.90
2022-12-09T23:01:01.687Z,4.99
2022-12-09T23:03:28.196Z,4.74
2022-12-09T23:05:54.923Z,4.55
2022-12-09T23:08:21.775Z,4.37
2022-12-09T23:10:48.021Z,4.49
2022-12-09T23:13:14.444Z,4.47
2022-12-09T23:15:40.705Z,4.58
2022-12-09T23:18:07.487Z,4.65
2022-12-09T23:20:34.031Z,4.66
2022-12-09T23:23:00.535Z,4.77
2022-12-09T23:25:26.674Z,4.78
2022-12-09T23:27:53.084Z,4.83
2022-12-09T23:30:19.281Z,4.77
2022-12-09T23:32:45.667Z,4.61
2022-12-09T23:35:11.900Z,4.68
2022-12-09T23:37:38.291Z,4.59
2022-12-09T23:40:05.274Z,4.64
2022-12-09T23:42:31.796Z,4.35
2022-12-09T23:44:58.331Z,4.17
2022-12-09T23:47:24.801Z,4.08
2022-12-09T23:49:50.886Z,3.98
2022-12-09T23:52:17.356Z,4.07
2022-12-09T23:54:43.488Z,4.05
2022-12-09T23:57:09.882Z,4.02
2022-12-09T23:59:36.045Z,4.14
